Map

Track Data

SID SEASON NUMBER BASIN SUBBASIN NAME ISO_TIME NATURE LAT LON WMO_WIND WMO_PRES WMO_AGENCY TRACK_TYPE DIST2LAND LANDFALL IFLAG USA_AGENCY USA_ATCF_ID USA_LAT USA_LON USA_RECORD USA_STATUS USA_WIND USA_PRES USA_SSHS USA_R34_NE USA_R34_SE USA_R34_SW USA_R34_NW USA_R50_NE USA_R50_SE USA_R50_SW USA_R50_NW USA_R64_NE USA_R64_SE USA_R64_SW USA_R64_NW USA_POCI USA_ROCI USA_RMW USA_EYE TOKYO_LAT TOKYO_LON TOKYO_GRADE TOKYO_WIND TOKYO_PRES TOKYO_R50_DIR TOKYO_R50_LONG TOKYO_R50_SHORT TOKYO_R30_DIR TOKYO_R30_LONG TOKYO_R30_SHORT TOKYO_LAND CMA_LAT CMA_LON CMA_CAT CMA_WIND CMA_PRES HKO_LAT HKO_LON HKO_CAT HKO_WIND HKO_PRES NEWDELHI_LAT NEWDELHI_LON NEWDELHI_GRADE NEWDELHI_WIND NEWDELHI_PRES NEWDELHI_CI NEWDELHI_DP NEWDELHI_POCI REUNION_LAT REUNION_LON REUNION_TYPE REUNION_WIND REUNION_PRES REUNION_TNUM REUNION_CI REUNION_RMW REUNION_R34_NE REUNION_R34_SE REUNION_R34_SW REUNION_R34_NW REUNION_R50_NE REUNION_R50_SE REUNION_R50_SW REUNION_R50_NW REUNION_R64_NE REUNION_R64_SE REUNION_R64_SW REUNION_R64_NW BOM_LAT BOM_LON BOM_TYPE BOM_WIND BOM_PRES BOM_TNUM BOM_CI BOM_RMW BOM_R34_NE BOM_R34_SE BOM_R34_SW BOM_R34_NW BOM_R50_NE BOM_R50_SE BOM_R50_SW BOM_R50_NW BOM_R64_NE BOM_R64_SE BOM_R64_SW BOM_R64_NW BOM_ROCI BOM_POCI BOM_EYE BOM_POS_METHOD BOM_PRES_METHOD NADI_LAT NADI_LON NADI_CAT NADI_WIND NADI_PRES WELLINGTON_LAT WELLINGTON_LON WELLINGTON_WIND WELLINGTON_PRES DS824_LAT DS824_LON DS824_STAGE DS824_WIND DS824_PRES TD9636_LAT TD9636_LON TD9636_STAGE TD9636_WIND TD9636_PRES TD9635_LAT TD9635_LON TD9635_WIND TD9635_PRES TD9635_ROCI NEUMANN_LAT NEUMANN_LON NEUMANN_CLASS NEUMANN_WIND NEUMANN_PRES MLC_LAT MLC_LON MLC_CLASS MLC_WIND MLC_PRES USA_GUST BOM_GUST BOM_GUST_PER REUNION_GUST REUNION_GUST_PER USA_SEAHGT USA_SEARAD_NE USA_SEARAD_SE USA_SEARAD_SW USA_SEARAD_NW STORM_SPEED STORM_DIR
1856235N13302 1856 8 NA NA NOT_NAMED 1856-08-21 12:00:00 TS 13.4000 -58.0000 main 444 423 _____________O -1 13.4000 -58.0000 TD 25 12 295
1856235N13302 1856 8 NA NA NOT_NAMED 1856-08-21 15:00:00 TS 13.6527 -58.5473 main 432 409 _____________P -1 13.6527 -58.5473 TD 25 12 295
1856235N13302 1856 8 NA NA NOT_NAMED 1856-08-21 18:00:00 TS 13.9000 -59.1000 main 413 408 _____________O -1 13.9000 -59.1000 TD 25 12 294
1856235N13302 1856 8 NA CS NOT_NAMED 1856-08-21 21:00:00 TS 14.1424 -59.6576 main 406 406 _____________P -1 14.1424 -59.6576 TD 25 12 295
1856235N13302 1856 8 NA CS NOT_NAMED 1856-08-22 00:00:00 TS 14.4000 -60.2000 main 423 421 _____________O -1 14.4000 -60.2000 TD 25 12 299
1856235N13302 1856 8 NA CS NOT_NAMED 1856-08-22 03:00:00 TS 14.6998 -60.7001 main 449 448 _____________P -1 14.6998 -60.7001 TD 25 11 302
1856235N13302 1856 8 NA CS NOT_NAMED 1856-08-22 06:00:00 TS 15.0000 -61.2000 main 481 481 _____________O -1 15.0000 -61.2000 TD 25 12 299
1856235N13302 1856 8 NA CS NOT_NAMED 1856-08-22 09:00:00 TS 15.2650 -61.7575 main 515 463 _____________P -1 15.2650 -61.7575 TD 25 12 295
1856235N13302 1856 8 NA CS NOT_NAMED 1856-08-22 12:00:00 TS 15.5000 -62.3000 main 463 416 _____________O -1 15.5000 -62.3000 TD 25 11 294
1856235N13302 1856 8 NA CS NOT_NAMED 1856-08-22 15:00:00 TS 15.7074 -62.7727 main 408 362 _____________P -1 15.7074 -62.7727 TD 27 10 295
1856235N13302 1856 8 NA CS NOT_NAMED 1856-08-22 18:00:00 TS 15.9000 -63.2000 main 362 316 _____________O -1 15.9000 -63.2000 TD 30 9 296
1856235N13302 1856 8 NA CS NOT_NAMED 1856-08-22 21:00:00 TS 16.0998 -63.6001 main 316 269 _____________P -1 16.0998 -63.6001 TD 30 9 298
1856235N13302 1856 8 NA CS NOT_NAMED 1856-08-23 00:00:00 TS 16.3000 -64.0000 main 269 224 _____________O -1 16.3000 -64.0000 TD 30 9 295
1856235N13302 1856 8 NA CS NOT_NAMED 1856-08-23 03:00:00 TS 16.4850 -64.4501 main 217 174 _____________P -1 16.4850 -64.4501 TD 30 10 295
1856235N13302 1856 8 NA CS NOT_NAMED 1856-08-23 06:00:00 TS 16.7000 -64.9000 main 174 123 _____________O -1 16.7000 -64.9000 TD 30 10 302
1856235N13302 1856 8 NA CS NOT_NAMED 1856-08-23 09:00:00 TS 16.9998 -65.3000 main 123 79 _____________P -1 16.9998 -65.3000 TD 30 10 308
1856235N13302 1856 8 NA CS NOT_NAMED 1856-08-23 12:00:00 TS 17.3000 -65.7000 main 79 45 _____________O -1 17.3000 -65.7000 TD 30 10 303
1856235N13302 1856 8 NA CS NOT_NAMED 1856-08-23 15:00:00 TS 17.5149 -66.1427 main 45 33 _____________P -1 17.5149 -66.1427 TD 30 9 295
1856235N13302 1856 8 NA CS NOT_NAMED 1856-08-23 18:00:00 TS 17.7000 -66.6000 main 33 10 _____________O -1 17.7000 -66.6000 TD 30 10 294
1856235N13302 1856 8 NA CS NOT_NAMED 1856-08-23 21:00:00 TS 17.8999 -67.0576 main 10 0 _____________P -1 17.8999 -67.0576 TD 30 9 295
1856235N13302 1856 8 NA CS NOT_NAMED 1856-08-24 00:00:00 TS 18.1000 -67.5000 main 31 31 _____________O -1 18.1000 -67.5000 TD 30 9 297
1856235N13302 1856 8 NA CS NOT_NAMED 1856-08-24 03:00:00 TS 18.2998 -67.9001 main 53 10 _____________P -1 18.2998 -67.9001 TD 32 9 298
1856235N13302 1856 8 NA CS NOT_NAMED 1856-08-24 06:00:00 TS 18.5000 -68.3000 main 10 0 _____________O -1 18.5000 -68.3000 TS 35 9 297
1856235N13302 1856 8 NA NA NOT_NAMED 1856-08-24 09:00:00 TS 18.7074 -68.7425 main 0 0 _____________P -1 18.7074 -68.7425 TS 40 9 295
1856235N13302 1856 8 NA NA NOT_NAMED 1856-08-24 12:00:00 TS 18.9000 -69.2000 main 0 0 _____________O -1 18.9000 -69.2000 TS 45 9 291
1856235N13302 1856 8 NA NA NOT_NAMED 1856-08-24 15:00:00 TS 19.0424 -69.6577 main 0 0 _____________P -1 19.0424 -69.6577 TS 50 9 289
1856235N13302 1856 8 NA NA NOT_NAMED 1856-08-24 18:00:00 TS 19.2000 -70.1000 main 0 0 _____________O -1 19.2000 -70.1000 TS 55 9 297
1856235N13302 1856 8 NA NA NOT_NAMED 1856-08-24 21:00:00 TS 19.4423 -70.5000 main 0 0 _____________P -1 19.4423 -70.5000 TS 57 10 336
1856235N13302 1856 8 NA NA NOT_NAMED 1856-08-25 00:00:00 TS 20.1333 -70.5333 70 hurdat_atl main 35 35 O____________O hurdat_atl AL051856 21.0000 -69.8000 HU 70 1 19.7000 -70.9000 TS 60 11 344
1856235N13302 1856 8 NA NA NOT_NAMED 1856-08-25 03:00:00 TS 20.4488 -70.8139 main 67 67 P____________P AL051856 20.9902 -70.2851 HU 70 1 19.9074 -71.3426 TS 67 8 309
1856235N13302 1856 8 NA NA NOT_NAMED 1856-08-25 06:00:00 TS 20.6400 -71.2000 70 hurdat_atl main 89 89 O____________O hurdat_atl AL051856 21.0000 -70.8000 HU 70 1 20.1000 -71.8000 HU 75 9 294
1856235N13302 1856 8 NA NA NOT_NAMED 1856-08-25 09:00:00 TS 20.7950 -71.6600 main 111 99 P____________P AL051856 21.0425 -71.3574 HU 70 1 20.3000 -72.2651 HU 87 9 286
1856235N13302 1856 8 NA NA NOT_NAMED 1856-08-25 12:00:00 TS 20.9000 -72.1667 70 hurdat_atl main 89 47 O____________O hurdat_atl AL051856 21.1000 -71.9000 HU 70 1 20.5000 -72.7000 MH 100 9 282
1856235N13302 1856 8 NA NA NOT_NAMED 1856-08-25 15:00:00 TS 20.9872 -72.5886 main 47 10 P____________P AL051856 21.1271 -72.3503 HU 70 1 20.7073 -73.0651 MH 107 8 284
1856235N13302 1856 8 NA NA NOT_NAMED 1856-08-25 18:00:00 TS 21.1000 -73.0000 70 hurdat_atl main 10 0 O____________O hurdat_atl AL051856 21.2000 -72.8000 HU 70 1 20.9000 -73.4000 MH 115 946 9 290
1856235N13302 1856 8 NA NA NOT_NAMED 1856-08-25 21:00:00 TS 21.2859 -73.4831 main 22 22 P____________P AL051856 21.4001 -73.3496 HU 70 1 21.0574 -73.7501 MH 115 10 292
1856235N13302 1856 8 NA NA NOT_NAMED 1856-08-26 00:00:00 TS 21.4667 -73.9667 70 hurdat_atl main 54 54 O____________O hurdat_atl AL051856 21.6000 -73.9000 HU 70 1 21.2000 -74.1000 MH 115 9 288
1856235N13302 1856 8 NA NA NOT_NAMED 1856-08-26 03:00:00 TS 21.5547 -74.3862 main 91 91 P____________P AL051856 21.6571 -74.3505 HU 70 1 21.3500 -74.4576 MH 115 8 282
1856235N13302 1856 8 NA NA NOT_NAMED 1856-08-26 06:00:00 TS 21.6333 -74.8000 70 hurdat_atl main 106 88 O____________O hurdat_atl AL051856 21.7000 -74.8000 HU 70 1 21.5000 -74.8000 MH 115 9 285
1856235N13302 1856 8 NA NA NOT_NAMED 1856-08-26 09:00:00 TS 21.7809 -75.2690 main 94 90 P____________P AL051856 21.8427 -75.3648 HU 75 1 21.6572 -75.0776 MH 112 9 289
1856235N13302 1856 8 NA NA NOT_NAMED 1856-08-26 12:00:00 TS 21.9333 -75.7333 80 hurdat_atl main 93 88 O____________O hurdat_atl AL051856 22.0000 -75.9000 HU 80 1 21.8000 -75.4000 MH 110 8 288
1856235N13302 1856 8 NA NA NOT_NAMED 1856-08-26 15:00:00 TS 22.0431 -76.1310 main 90 76 P____________P AL051856 22.1070 -76.2577 HU 80 1 21.9151 -75.8775 MH 110 8 285
1856235N13302 1856 8 NA NA NOT_NAMED 1856-08-26 18:00:00 TS 22.1333 -76.5333 80 hurdat_atl main 76 56 O____________O hurdat_atl AL051856 22.2000 -76.6000 HU 80 1 22.0000 -76.4000 MH 110 8 282
1856235N13302 1856 8 NA NA NOT_NAMED 1856-08-26 21:00:00 TS 22.2166 -77.0018 main 56 54 P____________P AL051856 22.3000 -77.0775 HU 80 1 22.0498 -76.8502 MH 107 9 281
1856235N13302 1856 8 NA NA NOT_NAMED 1856-08-27 00:00:00 TS 22.3000 -77.5000 80 hurdat_atl main 54 42 O____________O hurdat_atl AL051856 22.4000 -77.6000 HU 80 1 22.1000 -77.3000 MH 105 9 281
1856235N13302 1856 8 NA NA NOT_NAMED 1856-08-27 03:00:00 TS 22.4049 -78.0050 main 42 22 P____________P AL051856 22.5074 -78.1075 HU 80 1 22.2000 -77.7999 MH 102 9 282
1856235N13302 1856 8 NA NA NOT_NAMED 1856-08-27 06:00:00 TS 22.5000 -78.5000 80 hurdat_atl main 22 22 O____________O hurdat_atl AL051856 22.6000 -78.6000 HU 80 1 22.3000 -78.3000 MH 100 9 280
1856235N13302 1856 8 NA NA NOT_NAMED 1856-08-27 09:00:00 TS 22.5521 -78.9402 main 33 10 P____________P AL051856 22.6647 -79.0425 HU 85 2 22.3271 -78.7355 MH 97 8 277
1856235N13302 1856 8 NA NA NOT_NAMED 1856-08-27 12:00:00 TS 22.6000 -79.4000 90 hurdat_atl main 10 0 O____________O hurdat_atl AL051856 22.7000 -79.5000 HU 90 2 22.4000 -79.2000 HU 95 9 277
1856235N13302 1856 8 NA NA NOT_NAMED 1856-08-27 15:00:00 TS 22.6709 -79.9567 main 0 0 P____________P AL051856 22.6925 -80.0427 HU 85 2 22.6276 -79.7847 HU 95 11 279
1856235N13302 1856 8 NA NA NOT_NAMED 1856-08-27 18:00:00 TS 22.7667 -80.5333 80 hurdat_atl main 0 0 O____________O hurdat_atl AL051856 22.7000 -80.6000 HU 80 1 22.9000 -80.4000 HU 95 974 10 283
1856235N13302 1856 8 NA NA NOT_NAMED 1856-08-27 21:00:00 TS 22.8971 -81.0425 main 0 0 P____________P AL051856 22.7920 -81.0849 HU 80 1 23.1072 -80.9578 HU 92 971 10 286
1856235N13302 1856 8 NA NA NOT_NAMED 1856-08-28 00:00:00 TS 23.0333 -81.5667 80 hurdat_atl main 0 0 O____________O hurdat_atl AL051856 22.9000 -81.6000 HU 80 1 23.3000 -81.5000 HU 90 969 11 283
1856235N13302 1856 8 NA NA NOT_NAMED 1856-08-28 03:00:00 TS 23.1334 -82.1785 main 0 0 P____________P AL051856 22.9502 -82.2427 HU 85 2 23.4998 -82.0502 HU 90 969 12 280
1856235N13302 1856 8 NA NA NOT_NAMED 1856-08-28 06:00:00 TS 23.2333 -82.8000 90 969 hurdat_atl main 22 22 O____________O hurdat_atl AL051856 23.0000 -82.9000 HU 90 969 2 23.7000 -82.6000 HU 90 969 11 281
1856235N13302 1856 8 NA GM NOT_NAMED 1856-08-28 09:00:00 TS 23.3567 -83.3925 main 55 55 P____________P AL051856 23.0775 -83.5025 HU 90 2 23.9150 -83.1724 HU 87 10 285
1856235N13302 1856 8 NA GM NOT_NAMED 1856-08-28 12:00:00 TS 23.5000 -83.9000 90 hurdat_atl main 80 80 O____________O hurdat_atl AL051856 23.2000 -84.0000 HU 90 2 24.1000 -83.7000 HU 85 9 291
1856235N13302 1856 8 NA GM NOT_NAMED 1856-08-28 15:00:00 TS 23.6664 -84.2709 main 115 115 P____________P AL051856 23.3922 -84.3450 HU 90 2 24.2147 -84.1228 HU 85 7 299
1856235N13302 1856 8 NA GM NOT_NAMED 1856-08-28 18:00:00 TS 23.8333 -84.5667 90 hurdat_atl main 137 137 O____________O hurdat_atl AL051856 23.6000 -84.6000 HU 90 2 24.3000 -84.5000 HU 85 6 299
1856235N13302 1856 8 NA GM NOT_NAMED 1856-08-28 21:00:00 TS 23.9716 -84.8718 main 171 171 P____________P AL051856 23.7574 -84.8576 HU 90 2 24.3999 -84.9001 HU 87 6 296
1856235N13302 1856 8 NA GM NOT_NAMED 1856-08-29 00:00:00 TS 24.1000 -85.1667 90 hurdat_atl main 198 198 O____________O hurdat_atl AL051856 23.9000 -85.1000 HU 90 2 24.5000 -85.3000 HU 90 6 295
1856235N13302 1856 8 NA GM NOT_NAMED 1856-08-29 03:00:00 TS 24.2232 -85.4519 main 226 226 P____________P AL051856 24.0348 -85.3278 HU 90 2 24.5999 -85.7001 HU 90 6 296
1856235N13302 1856 8 NA GM NOT_NAMED 1856-08-29 06:00:00 TS 24.3667 -85.7667 90 hurdat_atl main 264 264 O____________O hurdat_atl AL051856 24.2000 -85.6000 HU 90 2 24.7000 -86.1000 HU 90 7 297
1856235N13302 1856 8 NA GM NOT_NAMED 1856-08-29 09:00:00 TS 24.5619 -86.1815 main 308 308 P____________P AL051856 24.4577 -86.0071 HU 90 2 24.7701 -86.5302 HU 92 8 299
1856235N13302 1856 8 NA GM NOT_NAMED 1856-08-29 12:00:00 TS 24.7667 -86.5667 90 hurdat_atl main 353 353 O____________O hurdat_atl AL051856 24.7000 -86.4000 HU 90 2 24.9000 -86.9000 HU 95 7 303
1856235N13302 1856 8 NA GM NOT_NAMED 1856-08-29 15:00:00 TS 24.9357 -86.8068 main 376 376 P____________P AL051856 24.8148 -86.6378 HU 90 2 25.1774 -87.1449 HU 95 5 313
1856235N13302 1856 8 NA GM NOT_NAMED 1856-08-29 18:00:00 TS 25.1000 -86.9667 90 hurdat_atl main 402 402 O____________O hurdat_atl AL051856 24.9000 -86.8000 HU 90 2 25.5000 -87.3000 HU 95 4 320
1856235N13302 1856 8 NA GM NOT_NAMED 1856-08-29 21:00:00 TS 25.2758 -87.1176 main 424 424 P____________P AL051856 25.0350 -86.9650 HU 95 2 25.7575 -87.4226 HU 97 4 327
1856235N13302 1856 8 NA GM NOT_NAMED 1856-08-30 00:00:00 TS 25.4667 -87.2333 100 hurdat_atl main 433 419 O____________O hurdat_atl AL051856 25.2000 -87.1000 HU 100 3 26.0000 -87.5000 MH 100 4 333
1856235N13302 1856 8 NA GM NOT_NAMED 1856-08-30 03:00:00 TS 25.6608 -87.3342 main 409 384 P____________P AL051856 25.3775 -87.2150 HU 100 3 26.2275 -87.5725 MH 100 5 341
1856235N13302 1856 8 NA GM NOT_NAMED 1856-08-30 06:00:00 TS 25.9000 -87.4000 100 hurdat_atl main 384 354 O____________O hurdat_atl AL051856 25.6000 -87.3000 HU 100 3 26.5000 -87.6000 MH 100 5 349
1856235N13302 1856 8 NA GM NOT_NAMED 1856-08-30 09:00:00 TS 26.1783 -87.4416 main 354 325 P____________P AL051856 25.8325 -87.3724 HU 100 3 26.8700 -87.5799 MH 100 7 356
1856235N13302 1856 8 NA GM NOT_NAMED 1856-08-30 12:00:00 TS 26.5667 -87.4333 100 hurdat_atl main 315 269 O____________O hurdat_atl AL051856 26.2000 -87.4000 HU 100 3 27.3000 -87.5000 MH 100 9 2
1856235N13302 1856 8 NA GM NOT_NAMED 1856-08-30 15:00:00 TS 27.1074 -87.3995 main 269 228 P____________P AL051856 26.7899 -87.4093 HU 100 3 27.7425 -87.3799 MH 100 12 7
1856235N13302 1856 8 NA GM NOT_NAMED 1856-08-30 18:00:00 TS 27.7333 -87.2667 100 hurdat_atl main 228 210 O____________O hurdat_atl AL051856 27.5000 -87.3000 HU 100 3 28.2000 -87.2000 MH 100 13 16
1856235N13302 1856 8 NA GM NOT_NAMED 1856-08-30 21:00:00 TS 28.3501 -86.9903 main 209 154 P____________P AL051856 28.2002 -86.9955 HU 95 2 28.6499 -86.9798 MH 95 14 24
1856235N13302 1856 8 NA GM NOT_NAMED 1856-08-31 00:00:00 TS 28.9667 -86.6333 90 hurdat_atl main 139 87 O____________O hurdat_atl AL051856 28.9000 -86.6000 HU 90 2 29.1000 -86.7000 HU 90 14 26
1856235N13302 1856 8 NA GM NOT_NAMED 1856-08-31 03:00:00 TS 29.5747 -86.3079 main 77 14 P____________P AL051856 29.5871 -86.2793 HU 90 2 29.5500 -86.3649 HU 90 13 28
1856235N13302 1856 8 NA GM NOT_NAMED 1856-08-31 06:00:00 TS 30.1333 -85.9333 90 hurdat_atl main 11 0 O____________O hurdat_atl AL051856 30.2000 -85.9000 L HU 90 2 30.0000 -86.0000 HU 90 12 34
1856235N13302 1856 8 NA NA NOT_NAMED 1856-08-31 09:00:00 TS 30.5902 -85.5161 main 0 0 P____________P AL051856 30.6647 -85.4088 HU 80 1 30.4414 -85.7308 HU 80 12 43
1856235N13302 1856 8 NA NA NOT_NAMED 1856-08-31 12:00:00 TS 31.0333 -84.9667 70 hurdat_atl main 0 0 O____________O hurdat_atl AL051856 31.1000 -84.8000 HU 70 1 30.9000 -85.3000 HU 70 15 48
1856235N13302 1856 8 NA NA NOT_NAMED 1856-08-31 15:00:00 TS 31.5769 -84.2198 main 0 0 P____________P AL051856 31.6573 -84.0952 HU 65 1 31.4160 -84.4688 HU 65 17 52
1856235N13302 1856 8 NA NA NOT_NAMED 1856-08-31 18:00:00 TS 32.1000 -83.3667 60 hurdat_atl main 0 0 O____________O hurdat_atl AL051856 32.2000 -83.3000 TS 60 0 31.9000 -83.5000 TS 60 17 57
1856235N13302 1856 8 NA NA NOT_NAMED 1856-08-31 21:00:00 TS 32.4976 -82.5467 main 0 0 P____________P AL051856 32.6067 -82.4855 TS 55 0 32.2794 -82.6690 TS 55 16 61
1856235N13302 1856 8 NA NA NOT_NAMED 1856-09-01 00:00:00 TS 32.8667 -81.7000 50 hurdat_atl main 0 0 O____________O hurdat_atl AL051856 33.0000 -81.6000 TS 50 0 32.6000 -81.9000 TS 50 17 61
1856235N13302 1856 8 NA NA NOT_NAMED 1856-09-01 03:00:00 TS 33.3074 -80.7953 main 0 0 P____________P AL051856 33.5077 -80.6008 TS 50 0 32.9068 -81.1842 TS 50 17 60
1856235N13302 1856 8 NA NA NOT_NAMED 1856-09-01 06:00:00 TS 33.7333 -79.9000 50 hurdat_atl main 0 0 O____________O hurdat_atl AL051856 34.0000 -79.6000 TS 50 0 33.2000 -80.5000 TS 50 16 61
1856235N13302 1856 8 NA NA NOT_NAMED 1856-09-01 09:00:00 TS 34.0773 -79.1255 main 0 0 P____________P AL051856 34.3623 -78.7920 TS 50 0 33.5072 -79.7923 TS 50 15 63
1856235N13302 1856 8 NA NA NOT_NAMED 1856-09-01 12:00:00 TS 34.4000 -78.3000 50 hurdat_atl main 0 0 O____________O hurdat_atl AL051856 34.7000 -77.9000 TS 50 0 33.8000 -79.1000 TS 50 18 66
1856235N13302 1856 8 NA NA NOT_NAMED 1856-09-01 15:00:00 TS 34.8107 -77.1460 main 0 0 P____________P AL051856 35.0933 -76.6600 TS 50 0 34.0606 -78.4406 TS 50 22 67
1856235N13302 1856 8 NA NA NOT_NAMED 1856-09-01 18:00:00 TS 35.2600 -75.8000 50 hurdat_atl main 28 28 O____________O hurdat_atl AL051856 35.5000 -75.3000 TS 50 0 34.3000 -77.8000 TS 50 24 67
1856235N13302 1856 8 NA NA NOT_NAMED 1856-09-01 21:00:00 TS 35.7680 -74.4064 main 98 98 P_____________ AL051856 35.9202 -74.0644 TS 50 0 TS 26 67
1856235N13302 1856 8 NA NA NOT_NAMED 1856-09-02 00:00:00 TS 36.3000 -72.8000 50 hurdat_atl main 248 248 O_____________ hurdat_atl AL051856 36.3000 -72.8000 TS 50 0 25 71
1856235N13302 1856 8 NA NA NOT_NAMED 1856-09-02 03:00:00 TS 36.5794 -71.4137 main 376 376 P_____________ AL051856 36.5794 -71.4137 TS 50 0 23 77
1856235N13302 1856 8 NA NA NOT_NAMED 1856-09-02 06:00:00 TS 36.8000 -70.0000 50 hurdat_atl main 478 478 O_____________ hurdat_atl AL051856 36.8000 -70.0000 TS 50 0 23 79
1856235N13302 1856 8 NA NA NOT_NAMED 1856-09-02 09:00:00 TS 36.9982 -68.6410 main 532 531 P_____________ AL051856 36.9982 -68.6410 TS 50 0 22 79
1856235N13302 1856 8 NA NA NOT_NAMED 1856-09-02 12:00:00 TS 37.2000 -67.3000 50 hurdat_atl main 551 551 O_____________ hurdat_atl AL051856 37.2000 -67.3000 TS 50 0 22 78
1856235N13302 1856 8 NA NA NOT_NAMED 1856-09-02 15:00:00 TS 37.4407 -65.9569 main 588 583 P_____________ AL051856 37.4407 -65.9569 TS 50 0 22 77
1856235N13302 1856 8 NA NA NOT_NAMED 1856-09-02 18:00:00 TS 37.7000 -64.6000 50 hurdat_atl main 640 637 O_____________ hurdat_atl AL051856 37.7000 -64.6000 TS 50 0 22 77
1856235N13302 1856 8 NA NA NOT_NAMED 1856-09-02 21:00:00 TS 37.9400 -63.2357 main 647 636 P_____________ AL051856 37.9400 -63.2357 TS 50 0 23 77
1856235N13302 1856 8 NA NA NOT_NAMED 1856-09-03 00:00:00 TS 38.2000 -61.8000 50 hurdat_atl main 658 658 O_____________ hurdat_atl AL051856 38.2000 -61.8000 TS 50 0 25 76
1856235N13302 1856 8 NA NA NOT_NAMED 1856-09-03 03:00:00 TS 38.5232 -60.1869 main 700 700 P_____________ AL051856 38.5232 -60.1869 TS 50 0 26 77
1856235N13302 1856 8 NA NA NOT_NAMED 1856-09-03 06:00:00 TS 38.8000 -58.6000 50 hurdat_atl main 740 740 O_____________ hurdat_atl AL051856 38.8000 -58.6000 TS 50 0 23 80
1856235N13302 1856 8 NA NA NOT_NAMED 1856-09-03 09:00:00 TS 38.9013 -57.3330 main 767 767 P_____________ AL051856 38.9013 -57.3330 TS 50 0 20 84
1856235N13302 1856 8 NA NA NOT_NAMED 1856-09-03 12:00:00 TS 39.0000 -56.0000 50 hurdat_atl main 806 806 O_____________ hurdat_atl AL051856 39.0000 -56.0000 TS 50 0 24 82
1856235N13302 1856 8 NA NA NOT_NAMED 1856-09-03 15:00:00 TS 39.2200 -54.2809 main 824 790 P_____________ AL051856 39.2200 -54.2809 TS 50 0 29 80
1856235N13302 1856 8 NA NA NOT_NAMED 1856-09-03 18:00:00 TS 39.5000 -52.3000 50 hurdat_atl main 792 O_____________ hurdat_atl AL051856 39.5000 -52.3000 TS 50 0 31 80

About IBTrACS Database

This database is a web-friendly format of International Best Track Archive for Climate Stewardship (IBTrACS), a global best track data archive curated by NOAA dating back to 1842.

Updated: 2021-12-03